sensor_id;sensor_type;location;lat;lon;timestamp;pressure;altitude;pressure_sealevel;temperature;humidity
8280;BME280;8335;42.646;23.380;2023-03-22T00:01:09;144090.09;;;10.13;100.00
8280;BME280;8335;42.646;23.380;2023-03-22T00:03:37;144096.34;;;10.16;100.00
8280;BME280;8335;42.646;23.380;2023-03-22T00:06:04;143970.88;;;9.64;100.00
8280;BME280;8335;42.646;23.380;2023-03-22T00:08:31;144087.63;;;10.12;100.00
8280;BME280;8335;42.646;23.380;2023-03-22T00:10:59;144085.16;;;10.11;100.00
8280;BME280;8335;42.646;23.380;2023-03-22T00:13:26;144080.19;;;10.09;100.00
8280;BME280;8335;42.646;23.380;2023-03-22T00:15:54;144081.44;;;10.10;100.00
8280;BME280;8335;42.646;23.380;2023-03-22T00:18:22;144070.22;;;10.05;100.00
8280;BME280;8335;42.646;23.380;2023-03-22T00:20:49;144059.09;;;10.01;100.00
8280;BME280;8335;42.646;23.380;2023-03-22T00:23:16;144044.16;;;9.95;100.00
8280;BME280;8335;42.646;23.380;2023-03-22T00:25:43;144054.06;;;9.99;100.00
8280;BME280;8335;42.646;23.380;2023-03-22T00:28:12;144034.19;;;9.90;100.00
8280;BME280;8335;42.646;23.380;2023-03-22T00:30:40;144029.25;;;9.88;100.00
8280;BME280;8335;42.646;23.380;2023-03-22T00:33:08;144024.28;;;9.86;100.00
8280;BME280;8335;42.646;23.380;2023-03-22T00:35:34;144030.47;;;9.89;100.00
8280;BME280;8335;42.646;23.380;2023-03-22T00:38:01;144028.00;;;9.88;100.00
8280;BME280;8335;42.646;23.380;2023-03-22T00:40:38;144020.53;;;9.85;100.00
8280;BME280;8335;42.646;23.380;2023-03-22T00:43:05;144015.56;;;9.83;100.00
8280;BME280;8335;42.646;23.380;2023-03-22T00:45:33;144024.28;;;9.86;100.00
8280;BME280;8335;42.646;23.380;2023-03-22T00:48:02;144006.91;;;9.79;100.00
8280;BME280;8335;42.646;23.380;2023-03-22T00:50:29;144036.69;;;9.91;100.00
8280;BME280;8335;42.646;23.380;2023-03-22T00:52:56;144035.44;;;9.91;100.00
8280;BME280;8335;42.646;23.380;2023-03-22T00:55:23;144037.91;;;9.92;100.00
8280;BME280;8335;42.646;23.380;2023-03-22T00:57:49;144025.53;;;9.87;100.00
8280;BME280;8335;42.646;23.380;2023-03-22T01:00:17;144024.28;;;9.86;100.00
8280;BME280;8335;42.646;23.380;2023-03-22T01:02:45;144020.53;;;9.85;100.00
8280;BME280;8335;42.646;23.380;2023-03-22T01:05:12;144014.31;;;9.82;100.00
8280;BME280;8335;42.646;23.380;2023-03-22T01:07:42;144021.75;;;9.85;100.00
8280;BME280;8335;42.646;23.380;2023-03-22T01:10:10;144029.25;;;9.88;100.00
8280;BME280;8335;42.646;23.380;2023-03-22T01:12:37;143991.97;;;9.73;100.00
8280;BME280;8335;42.646;23.380;2023-03-22T01:15:05;144019.28;;;9.84;100.00
8280;BME280;8335;42.646;23.380;2023-03-22T01:17:32;144006.91;;;9.79;100.00
8280;BME280;8335;42.646;23.380;2023-03-22T01:20:00;143995.69;;;9.75;100.00
8280;BME280;8335;42.646;23.380;2023-03-22T01:22:28;143977.06;;;9.67;100.00
8280;BME280;8335;42.646;23.380;2023-03-22T01:24:55;143962.16;;;9.61;100.00
8280;BME280;8335;42.646;23.380;2023-03-22T01:27:22;143959.69;;;9.60;100.00
8280;BME280;8335;42.646;23.380;2023-03-22T01:29:48;143958.44;;;9.59;100.00
8280;BME280;8335;42.646;23.380;2023-03-22T01:32:15;143950.97;;;9.56;100.00
8280;BME280;8335;42.646;23.380;2023-03-22T01:34:42;143947.25;;;9.55;100.00
8280;BME280;8335;42.646;23.380;2023-03-22T01:37:10;143929.84;;;9.48;100.00
8280;BME280;8335;42.646;23.380;2023-03-22T01:39:37;143926.13;;;9.46;100.00
8280;BME280;8335;42.646;23.380;2023-03-22T01:42:04;143912.47;;;9.41;100.00
8280;BME280;8335;42.646;23.380;2023-03-22T01:44:30;143860.31;;;9.19;100.00
8280;BME280;8335;42.646;23.380;2023-03-22T01:46:57;143913.72;;;9.41;100.00
8280;BME280;8335;42.646;23.380;2023-03-22T01:49:26;143901.31;;;9.36;100.00
8280;BME280;8335;42.646;23.380;2023-03-22T01:51:55;143906.28;;;9.38;100.00
8280;BME280;8335;42.646;23.380;2023-03-22T01:54:29;143918.72;;;9.43;100.00
8280;BME280;8335;42.646;23.380;2023-03-22T01:56:57;143903.81;;;9.37;100.00
8280;BME280;8335;42.646;23.380;2023-03-22T01:59:25;143900.03;;;9.35;100.00
8280;BME280;8335;42.646;23.380;2023-03-22T02:01:53;143887.66;;;9.30;100.00
8280;BME280;8335;42.646;23.380;2023-03-22T02:04:21;143878.94;;;9.27;100.00
8280;BME280;8335;42.646;23.380;2023-03-22T02:06:50;143886.41;;;9.30;100.00
8280;BME280;8335;42.646;23.380;2023-03-22T02:09:22;143836.75;;;9.09;100.00
8280;BME280;8335;42.646;23.380;2023-03-22T02:11:55;143882.66;;;9.28;100.00
8280;BME280;8335;42.646;23.380;2023-03-22T02:14:38;143881.41;;;9.28;100.00
8280;BME280;8335;42.646;23.380;2023-03-22T02:17:21;143859.06;;;9.19;100.00
8280;BME280;8335;42.646;23.380;2023-03-22T02:20:24;143873.97;;;9.25;100.00
8280;BME280;8335;42.646;23.380;2023-03-22T02:23:18;143824.31;;;9.04;100.00
8280;BME280;8335;42.646;23.380;2023-03-22T02:26:24;143865.25;;;9.21;100.00
8280;BME280;8335;42.646;23.380;2023-03-22T02:29:03;143860.31;;;9.19;100.00
8280;BME280;8335;42.646;23.380;2023-03-22T02:31:49;143859.06;;;9.19;100.00
8280;BME280;8335;42.646;23.380;2023-03-22T02:34:36;143864.03;;;9.21;100.00
8280;BME280;8335;42.646;23.380;2023-03-22T02:37:46;143867.78;;;9.22;100.00
8280;BME280;8335;42.646;23.380;2023-03-22T02:40:25;143869.03;;;9.23;100.00
8280;BME280;8335;42.646;23.380;2023-03-22T02:42:57;143862.78;;;9.20;100.00
8280;BME280;8335;42.646;23.380;2023-03-22T02:45:31;143857.84;;;9.18;100.00
8280;BME280;8335;42.646;23.380;2023-03-22T02:48:05;143862.78;;;9.20;100.00
8280;BME280;8335;42.646;23.380;2023-03-22T02:50:38;143860.31;;;9.19;100.00
8280;BME280;8335;42.646;23.380;2023-03-22T02:53:11;143860.31;;;9.19;100.00
8280;BME280;8335;42.646;23.380;2023-03-22T02:55:46;143857.84;;;9.18;100.00
8280;BME280;8335;42.646;23.380;2023-03-22T02:58:17;143870.25;;;9.23;100.00
8280;BME280;8335;42.646;23.380;2023-03-22T03:00:49;143870.25;;;9.23;100.00
8280;BME280;8335;42.646;23.380;2023-03-22T03:03:19;143877.69;;;9.26;100.00
8280;BME280;8335;42.646;23.380;2023-03-22T03:05:53;143871.50;;;9.24;100.00
8280;BME280;8335;42.646;23.380;2023-03-22T03:08:21;143851.66;;;9.16;100.00
8280;BME280;8335;42.646;23.380;2023-03-22T03:10:51;143877.69;;;9.26;100.00
8280;BME280;8335;42.646;23.380;2023-03-22T03:13:19;143882.66;;;9.28;100.00
8280;BME280;8335;42.646;23.380;2023-03-22T03:15:49;143885.19;;;9.29;100.00
8280;BME280;8335;42.646;23.380;2023-03-22T03:18:28;143883.94;;;9.29;100.00
8280;BME280;8335;42.646;23.380;2023-03-22T03:21:02;143890.13;;;9.31;100.00
8280;BME280;8335;42.646;23.380;2023-03-22T03:23:37;143883.94;;;9.29;100.00
8280;BME280;8335;42.646;23.380;2023-03-22T03:26:12;143891.38;;;9.32;100.00
8280;BME280;8335;42.646;23.380;2023-03-22T03:28:48;143866.56;;;9.22;100.00
8280;BME280;8335;42.646;23.380;2023-03-22T03:31:24;143869.03;;;9.23;100.00
8280;BME280;8335;42.646;23.380;2023-03-22T03:33:59;143875.22;;;9.25;100.00
8280;BME280;8335;42.646;23.380;2023-03-22T03:36:31;143870.25;;;9.23;100.00
8280;BME280;8335;42.646;23.380;2023-03-22T03:39:04;143877.69;;;9.26;100.00
8280;BME280;8335;42.646;23.380;2023-03-22T03:41:35;143842.94;;;9.12;100.00
8280;BME280;8335;42.646;23.380;2023-03-22T03:44:02;143866.56;;;9.22;100.00
8280;BME280;8335;42.646;23.380;2023-03-22T03:46:30;143839.22;;;9.10;100.00
8280;BME280;8335;42.646;23.380;2023-03-22T03:48:57;143851.66;;;9.16;100.00
8280;BME280;8335;42.646;23.380;2023-03-22T03:51:26;143850.41;;;9.15;100.00
8280;BME280;8335;42.646;23.380;2023-03-22T03:53:52;143841.69;;;9.12;100.00
8280;BME280;8335;42.646;23.380;2023-03-22T03:56:19;143841.69;;;9.12;100.00
8280;BME280;8335;42.646;23.380;2023-03-22T03:58:47;143836.75;;;9.09;100.00
8280;BME280;8335;42.646;23.380;2023-03-22T04:01:14;143836.75;;;9.09;100.00
8280;BME280;8335;42.646;23.380;2023-03-22T04:03:43;143835.50;;;9.09;100.00
8280;BME280;8335;42.646;23.380;2023-03-22T04:06:10;143837.97;;;9.10;100.00
8280;BME280;8335;42.646;23.380;2023-03-22T04:08:37;143824.31;;;9.04;100.00
8280;BME280;8335;42.646;23.380;2023-03-22T04:11:04;143821.84;;;9.03;100.00
8280;BME280;8335;42.646;23.380;2023-03-22T04:13:31;143823.06;;;9.04;100.00
8280;BME280;8335;42.646;23.380;2023-03-22T04:15:59;143823.06;;;9.04;100.00
8280;BME280;8335;42.646;23.380;2023-03-22T04:18:26;143824.31;;;9.04;100.00
8280;BME280;8335;42.646;23.380;2023-03-22T04:20:54;143824.31;;;9.04;100.00
8280;BME280;8335;42.646;23.380;2023-03-22T04:23:21;143792.03;;;8.91;100.00
8280;BME280;8335;42.646;23.380;2023-03-22T04:25:50;143819.34;;;9.02;100.00
8280;BME280;8335;42.646;23.380;2023-03-22T04:28:17;143818.13;;;9.02;100.00
8280;BME280;8335;42.646;23.380;2023-03-22T04:30:45;143819.34;;;9.02;100.00
8280;BME280;8335;42.646;23.380;2023-03-22T04:33:17;143808.16;;;8.98;100.00
8280;BME280;8335;42.646;23.380;2023-03-22T04:35:47;143818.13;;;9.02;100.00
8280;BME280;8335;42.646;23.380;2023-03-22T04:38:14;143820.59;;;9.03;100.00
8280;BME280;8335;42.646;23.380;2023-03-22T04:40:41;143825.53;;;9.05;100.00
8280;BME280;8335;42.646;23.380;2023-03-22T04:43:10;143815.63;;;9.01;100.00
8280;BME280;8335;42.646;23.380;2023-03-22T04:45:37;143835.50;;;9.09;100.00
8280;BME280;8335;42.646;23.380;2023-03-22T04:48:06;143849.16;;;9.15;100.00
8280;BME280;8335;42.646;23.380;2023-03-22T04:50:37;143831.78;;;9.07;100.00
8280;BME280;8335;42.646;23.380;2023-03-22T04:53:04;143806.94;;;8.97;100.00
8280;BME280;8335;42.646;23.380;2023-03-22T04:55:31;143820.59;;;9.03;100.00
8280;BME280;8335;42.646;23.380;2023-03-22T04:57:58;143790.78;;;8.91;100.00
8280;BME280;8335;42.646;23.380;2023-03-22T05:00:25;143830.50;;;9.07;100.00
8280;BME280;8335;42.646;23.380;2023-03-22T05:02:55;143841.69;;;9.12;100.00
8280;BME280;8335;42.646;23.380;2023-03-22T05:05:22;143833.03;;;9.08;100.00
8280;BME280;8335;42.646;23.380;2023-03-22T05:07:50;143842.94;;;9.12;100.00
8280;BME280;8335;42.646;23.380;2023-03-22T05:10:17;143837.97;;;9.10;100.00
8280;BME280;8335;42.646;23.380;2023-03-22T05:12:44;143835.50;;;9.09;100.00
8280;BME280;8335;42.646;23.380;2023-03-22T05:15:11;143835.50;;;9.09;100.00
8280;BME280;8335;42.646;23.380;2023-03-22T05:17:38;143821.84;;;9.03;100.00
8280;BME280;8335;42.646;23.380;2023-03-22T05:20:06;143856.59;;;9.18;100.00
8280;BME280;8335;42.646;23.380;2023-03-22T05:22:34;143847.88;;;9.14;100.00
8280;BME280;8335;42.646;23.380;2023-03-22T05:25:07;143857.84;;;9.18;100.00
8280;BME280;8335;42.646;23.380;2023-03-22T05:27:34;143867.78;;;9.22;100.00
8280;BME280;8335;42.646;23.380;2023-03-22T05:30:04;143854.13;;;9.17;100.00
8280;BME280;8335;42.646;23.380;2023-03-22T05:32:31;143861.56;;;9.20;100.00
8280;BME280;8335;42.646;23.380;2023-03-22T05:34:58;143859.06;;;9.19;100.00
8280;BME280;8335;42.646;23.380;2023-03-22T05:37:29;143861.56;;;9.20;100.00
8280;BME280;8335;42.646;23.380;2023-03-22T05:39:55;143865.25;;;9.21;100.00
8280;BME280;8335;42.646;23.380;2023-03-22T05:42:23;143872.75;;;9.24;100.00
8280;BME280;8335;42.646;23.380;2023-03-22T05:44:50;143876.47;;;9.26;100.00
8280;BME280;8335;42.646;23.380;2023-03-22T05:47:17;143878.94;;;9.27;100.00
8280;BME280;8335;42.646;23.380;2023-03-22T05:49:44;143880.19;;;9.27;100.00
8280;BME280;8335;42.646;23.380;2023-03-22T05:52:11;143882.66;;;9.28;100.00
8280;BME280;8335;42.646;23.380;2023-03-22T05:54:38;143897.56;;;9.34;100.00
8280;BME280;8335;42.646;23.380;2023-03-22T05:57:04;143902.56;;;9.36;100.00
8280;BME280;8335;42.646;23.380;2023-03-22T05:59:33;143921.19;;;9.44;100.00
8280;BME280;8335;42.646;23.380;2023-03-22T06:01:59;143933.56;;;9.49;100.00
8280;BME280;8335;42.646;23.380;2023-03-22T06:04:26;143927.38;;;9.47;100.00
8280;BME280;8335;42.646;23.380;2023-03-22T06:06:53;143938.56;;;9.51;100.00
8280;BME280;8335;42.646;23.380;2023-03-22T06:09:19;143954.72;;;9.58;100.00
8280;BME280;8335;42.646;23.380;2023-03-22T06:11:46;143960.91;;;9.60;100.00
8280;BME280;8335;42.646;23.380;2023-03-22T06:14:13;143974.59;;;9.66;100.00
8280;BME280;8335;42.646;23.380;2023-03-22T06:16:41;143977.06;;;9.67;100.00
8280;BME280;8335;42.646;23.380;2023-03-22T06:19:08;143983.25;;;9.70;100.00
8280;BME280;8335;42.646;23.380;2023-03-22T06:21:35;143991.97;;;9.73;100.00
8280;BME280;8335;42.646;23.380;2023-03-22T06:24:01;144005.66;;;9.79;100.00
8280;BME280;8335;42.646;23.380;2023-03-22T06:26:28;144006.91;;;9.79;100.00
8280;BME280;8335;42.646;23.380;2023-03-22T06:28:55;144008.13;;;9.80;100.00
8280;BME280;8335;42.646;23.380;2023-03-22T06:31:22;144023.06;;;9.86;100.00
8280;BME280;8335;42.646;23.380;2023-03-22T06:33:50;144035.44;;;9.91;100.00
8280;BME280;8335;42.646;23.380;2023-03-22T06:36:17;144047.88;;;9.96;100.00
8280;BME280;8335;42.646;23.380;2023-03-22T06:38:43;144051.59;;;9.98;100.00
8280;BME280;8335;42.646;23.380;2023-03-22T06:41:10;144066.50;;;10.04;100.00
8280;BME280;8335;42.646;23.380;2023-03-22T06:43:37;144083.91;;;10.11;100.00
8280;BME280;8335;42.646;23.380;2023-03-22T06:46:04;144101.31;;;10.18;100.00
8280;BME280;8335;42.646;23.380;2023-03-22T06:48:31;144124.94;;;10.28;100.00
8280;BME280;8335;42.646;23.380;2023-03-22T06:50:59;144139.88;;;10.34;100.00
8280;BME280;8335;42.646;23.380;2023-03-22T06:53:25;144136.16;;;10.32;100.00
8280;BME280;8335;42.646;23.380;2023-03-22T06:55:52;144159.75;;;10.42;100.00
8280;BME280;8335;42.646;23.380;2023-03-22T06:58:19;144189.59;;;10.54;100.00
8280;BME280;8335;42.646;23.380;2023-03-22T07:00:46;144220.69;;;10.67;100.00
8280;BME280;8335;42.646;23.380;2023-03-22T07:03:13;144214.44;;;10.64;100.00
8280;BME280;8335;42.646;23.380;2023-03-22T07:05:40;144241.81;;;10.75;100.00
8280;BME280;8335;42.646;23.380;2023-03-22T07:08:08;144253.03;;;10.80;100.00
8280;BME280;8335;42.646;23.380;2023-03-22T07:10:35;144265.41;;;10.85;100.00
8280;BME280;8335;42.646;23.380;2023-03-22T07:13:01;144280.34;;;10.91;100.00
8280;BME280;8335;42.646;23.380;2023-03-22T07:15:28;144261.69;;;10.84;100.00
8280;BME280;8335;42.646;23.380;2023-03-22T07:17:55;144266.66;;;10.86;100.00
8280;BME280;8335;42.646;23.380;2023-03-22T07:20:22;144260.47;;;10.83;100.00
8280;BME280;8335;42.646;23.380;2023-03-22T07:22:49;144250.53;;;10.79;100.00
8280;BME280;8335;42.646;23.380;2023-03-22T07:25:18;144257.97;;;10.82;100.00
8280;BME280;8335;42.646;23.380;2023-03-22T07:27:45;144256.75;;;10.82;100.00
8280;BME280;8335;42.646;23.380;2023-03-22T07:30:12;144261.69;;;10.84;100.00
8280;BME280;8335;42.646;23.380;2023-03-22T07:32:39;144255.50;;;10.81;100.00
8280;BME280;8335;42.646;23.380;2023-03-22T07:35:06;144248.00;;;10.78;100.00
8280;BME280;8335;42.646;23.380;2023-03-22T07:37:33;144254.25;;;10.81;100.00
8280;BME280;8335;42.646;23.380;2023-03-22T07:40:00;144229.38;;;10.70;100.00
8280;BME280;8335;42.646;23.380;2023-03-22T07:42:29;144187.13;;;10.53;100.00
8280;BME280;8335;42.646;23.380;2023-03-22T07:44:56;144239.34;;;10.74;100.00
8280;BME280;8335;42.646;23.380;2023-03-22T07:47:23;144236.84;;;10.73;100.00
8280;BME280;8335;42.646;23.380;2023-03-22T07:49:50;144236.84;;;10.73;100.00
8280;BME280;8335;42.646;23.380;2023-03-22T07:52:17;144238.09;;;10.74;100.00
8280;BME280;8335;42.646;23.380;2023-03-22T07:54:43;144239.34;;;10.74;100.00
8280;BME280;8335;42.646;23.380;2023-03-22T07:57:10;144239.34;;;10.74;100.00
8280;BME280;8335;42.646;23.380;2023-03-22T07:59:38;144215.72;;;10.65;100.00
8280;BME280;8335;42.646;23.380;2023-03-22T08:02:05;144175.91;;;10.48;100.00
8280;BME280;8335;42.646;23.380;2023-03-22T08:04:32;144188.34;;;10.54;100.00
8280;BME280;8335;42.646;23.380;2023-03-22T08:06:59;144185.88;;;10.53;100.00
8280;BME280;8335;42.646;23.380;2023-03-22T08:09:26;144178.41;;;10.50;100.00
8280;BME280;8335;42.646;23.380;2023-03-22T08:11:53;144188.34;;;10.54;100.00
8280;BME280;8335;42.646;23.380;2023-03-22T08:14:19;144182.16;;;10.51;100.00
8280;BME280;8335;42.646;23.380;2023-03-22T08:16:47;144185.88;;;10.53;100.00
8280;BME280;8335;42.646;23.380;2023-03-22T08:19:14;144195.78;;;10.57;100.00
8280;BME280;8335;42.646;23.380;2023-03-22T08:21:41;144199.56;;;10.58;100.00
8280;BME280;8335;42.646;23.380;2023-03-22T08:24:08;144195.78;;;10.57;100.00
8280;BME280;8335;42.646;23.380;2023-03-22T08:26:35;144198.31;;;10.58;100.00
8280;BME280;8335;42.646;23.380;2023-03-22T08:29:02;144207.00;;;10.61;100.00
8280;BME280;8335;42.646;23.380;2023-03-22T08:31:28;144210.72;;;10.63;100.00
8280;BME280;8335;42.646;23.380;2023-03-22T08:33:57;144215.72;;;10.65;100.00
8280;BME280;8335;42.646;23.380;2023-03-22T08:36:24;144223.16;;;10.68;100.00
8280;BME280;8335;42.646;23.380;2023-03-22T08:38:51;144230.59;;;10.71;100.00
8280;BME280;8335;42.646;23.380;2023-03-22T08:41:18;144234.38;;;10.72;100.00
8280;BME280;8335;42.646;23.380;2023-03-22T08:43:45;144234.38;;;10.72;100.00
8280;BME280;8335;42.646;23.380;2023-03-22T08:46:11;144246.78;;;10.78;100.00
8280;BME280;8335;42.646;23.380;2023-03-22T08:48:38;144249.25;;;10.79;100.00
8280;BME280;8335;42.646;23.380;2023-03-22T08:51:07;144253.03;;;10.80;100.00
8280;BME280;8335;42.646;23.380;2023-03-22T08:53:34;144265.41;;;10.85;100.00
8280;BME280;8335;42.646;23.380;2023-03-22T08:56:01;144271.66;;;10.88;100.00
8280;BME280;8335;42.646;23.380;2023-03-22T08:58:28;144243.06;;;10.76;100.00
8280;BME280;8335;42.646;23.380;2023-03-22T09:00:55;144289.06;;;10.95;100.00
8280;BME280;8335;42.646;23.380;2023-03-22T09:03:22;144302.75;;;11.00;100.00
8280;BME280;8335;42.646;23.380;2023-03-22T09:05:49;144312.69;;;11.05;100.00
8280;BME280;8335;42.646;23.380;2023-03-22T09:08:17;144327.63;;;11.11;100.00
8280;BME280;8335;42.646;23.380;2023-03-22T09:10:44;144335.06;;;11.14;100.00
8280;BME280;8335;42.646;23.380;2023-03-22T09:13:12;144347.50;;;11.19;100.00
8280;BME280;8335;42.646;23.380;2023-03-22T09:15:41;144361.19;;;11.24;100.00
8280;BME280;8335;42.646;23.380;2023-03-22T09:18:08;144376.13;;;11.30;100.00
8280;BME280;8335;42.646;23.380;2023-03-22T09:20:35;144372.41;;;11.29;100.00
8280;BME280;8335;42.646;23.380;2023-03-22T09:23:02;144383.56;;;11.34;100.00
8280;BME280;8335;42.646;23.380;2023-03-22T09:25:31;144383.56;;;11.34;100.00
8280;BME280;8335;42.646;23.380;2023-03-22T09:27:57;144383.56;;;11.34;100.00
8280;BME280;8335;42.646;23.380;2023-03-22T09:30:24;144372.41;;;11.29;100.00
8280;BME280;8335;42.646;23.380;2023-03-22T09:32:51;144381.09;;;11.33;100.00
8280;BME280;8335;42.646;23.380;2023-03-22T09:35:18;144386.06;;;11.35;100.00
8280;BME280;8335;42.646;23.380;2023-03-22T09:37:45;144392.31;;;11.37;100.00
8280;BME280;8335;42.646;23.380;2023-03-22T09:40:14;144410.97;;;11.45;100.00
8280;BME280;8335;42.646;23.380;2023-03-22T09:42:45;144433.34;;;11.54;100.00
8280;BME280;8335;42.646;23.380;2023-03-22T09:45:16;144448.28;;;11.60;100.00
8280;BME280;8335;42.646;23.380;2023-03-22T09:47:46;144453.25;;;11.62;100.00
8280;BME280;8335;42.646;23.380;2023-03-22T09:50:18;144479.41;;;11.73;100.00
8280;BME280;8335;42.646;23.380;2023-03-22T09:52:45;144480.63;;;11.73;100.00
8280;BME280;8335;42.646;23.380;2023-03-22T09:55:17;144496.81;;;11.80;100.00
8280;BME280;8335;42.646;23.380;2023-03-22T09:57:50;144511.81;;;11.86;100.00
8280;BME280;8335;42.646;23.380;2023-03-22T10:00:23;144520.47;;;11.90;100.00
8280;BME280;8335;42.646;23.380;2023-03-22T10:02:58;144503.06;;;11.82;100.00
8280;BME280;8335;42.646;23.380;2023-03-22T10:05:30;144524.22;;;11.91;100.00
8280;BME280;8335;42.646;23.380;2023-03-22T10:08:10;144537.91;;;11.97;100.00
8280;BME280;8335;42.646;23.380;2023-03-22T10:10:40;144537.91;;;11.97;100.00
8280;BME280;8335;42.646;23.380;2023-03-22T10:13:15;144536.66;;;11.96;100.00
8280;BME280;8335;42.646;23.380;2023-03-22T10:15:46;144547.88;;;12.01;100.00
8280;BME280;8335;42.646;23.380;2023-03-22T10:18:18;144549.13;;;12.01;100.00
8280;BME280;8335;42.646;23.380;2023-03-22T10:20:49;144525.44;;;11.92;100.00
8280;BME280;8335;42.646;23.380;2023-03-22T10:23:23;144539.16;;;11.97;100.00
8280;BME280;8335;42.646;23.380;2023-03-22T10:25:54;144530.47;;;11.94;99.20
8280;BME280;8335;42.646;23.380;2023-03-22T10:28:28;144465.69;;;11.67;98.46
8280;BME280;8335;42.646;23.380;2023-03-22T10:30:57;144496.81;;;11.80;98.51
8280;BME280;8335;42.646;23.380;2023-03-22T10:33:37;144520.47;;;11.90;99.53
8280;BME280;8335;42.646;23.380;2023-03-22T10:36:06;144537.91;;;11.97;100.00
8280;BME280;8335;42.646;23.380;2023-03-22T10:38:46;144522.97;;;11.91;100.00
8280;BME280;8335;42.646;23.380;2023-03-22T10:41:15;144545.34;;;12.00;100.00
8280;BME280;8335;42.646;23.380;2023-03-22T10:43:44;144551.63;;;12.02;99.01
8280;BME280;8335;42.646;23.380;2023-03-22T10:46:17;144546.66;;;12.00;99.01
8280;BME280;8335;42.646;23.380;2023-03-22T10:48:47;144539.16;;;11.97;100.00
8280;BME280;8335;42.646;23.380;2023-03-22T10:51:22;144491.81;;;11.78;98.66
8280;BME280;8335;42.646;23.380;2023-03-22T10:53:52;144499.34;;;11.81;96.76
8280;BME280;8335;42.646;23.380;2023-03-22T10:56:20;144535.44;;;11.96;96.29
8280;BME280;8335;42.646;23.380;2023-03-22T10:58:50;144518.00;;;11.89;95.55
8280;BME280;8335;42.646;23.380;2023-03-22T11:01:25;144503.06;;;11.82;95.65
8280;BME280;8335;42.646;23.380;2023-03-22T11:04:05;144509.28;;;11.85;95.98
8280;BME280;8335;42.646;23.380;2023-03-22T11:06:37;144515.53;;;11.88;96.13
8280;BME280;8335;42.646;23.380;2023-03-22T11:09:11;144539.16;;;11.97;96.06
8280;BME280;8335;42.646;23.380;2023-03-22T11:11:46;144546.66;;;12.00;96.22
8280;BME280;8335;42.646;23.380;2023-03-22T11:14:19;144561.53;;;12.06;96.07
8280;BME280;8335;42.646;23.380;2023-03-22T11:16:51;144564.06;;;12.07;96.54
8280;BME280;8335;42.646;23.380;2023-03-22T11:19:23;144554.09;;;12.03;96.03
8280;BME280;8335;42.646;23.380;2023-03-22T11:21:51;144557.81;;;12.05;95.81
8280;BME280;8335;42.646;23.380;2023-03-22T11:24:18;144559.06;;;12.05;96.18
8280;BME280;8335;42.646;23.380;2023-03-22T11:27:02;144555.34;;;12.04;95.68
8280;BME280;8335;42.646;23.380;2023-03-22T11:29:38;144508.03;;;11.84;94.97
8280;BME280;8335;42.646;23.380;2023-03-22T11:32:19;144525.44;;;11.92;95.16
8280;BME280;8335;42.646;23.380;2023-03-22T11:34:46;144530.47;;;11.94;95.06
8280;BME280;8335;42.646;23.380;2023-03-22T11:37:15;144536.66;;;11.96;95.96
8280;BME280;8335;42.646;23.380;2023-03-22T11:39:45;144534.19;;;11.95;96.56
8280;BME280;8335;42.646;23.380;2023-03-22T11:42:17;144562.78;;;12.07;96.69
8280;BME280;8335;42.646;23.380;2023-03-22T11:44:47;144569.03;;;12.09;96.76
8280;BME280;8335;42.646;23.380;2023-03-22T11:47:14;144549.13;;;12.01;96.45
8280;BME280;8335;42.646;23.380;2023-03-22T11:49:44;144494.34;;;11.79;95.62
8280;BME280;8335;42.646;23.380;2023-03-22T11:52:16;144461.97;;;11.66;96.24
8280;BME280;8335;42.646;23.380;2023-03-22T11:54:44;144439.53;;;11.56;97.89
8280;BME280;8335;42.646;23.380;2023-03-22T11:57:14;144445.78;;;11.59;97.42
8280;BME280;8335;42.646;23.380;2023-03-22T11:59:48;144466.94;;;11.68;96.74
8280;BME280;8335;42.646;23.380;2023-03-22T12:02:22;144471.91;;;11.70;97.11
8280;BME280;8335;42.646;23.380;2023-03-22T12:04:52;144480.63;;;11.73;97.05
8280;BME280;8335;42.646;23.380;2023-03-22T12:07:25;144481.88;;;11.74;97.60
8280;BME280;8335;42.646;23.380;2023-03-22T12:09:57;144489.31;;;11.77;98.34
8280;BME280;8335;42.646;23.380;2023-03-22T12:12:29;144489.31;;;11.77;98.34
8280;BME280;8335;42.646;23.380;2023-03-22T12:15:00;144488.09;;;11.76;98.34
8280;BME280;8335;42.646;23.380;2023-03-22T12:17:35;144503.06;;;11.82;98.65
8280;BME280;8335;42.646;23.380;2023-03-22T12:20:13;144520.47;;;11.90;98.62
8280;BME280;8335;42.646;23.380;2023-03-22T12:22:44;144545.34;;;12.00;98.33
8280;BME280;8335;42.646;23.380;2023-03-22T12:25:18;144532.94;;;11.95;98.52
8280;BME280;8335;42.646;23.380;2023-03-22T12:27:48;144608.84;;;12.26;97.94
8280;BME280;8335;42.646;23.380;2023-03-22T12:30:20;144656.19;;;12.45;97.96
8280;BME280;8335;42.646;23.380;2023-03-22T12:32:51;144681.06;;;12.55;98.00
8280;BME280;8335;42.646;23.380;2023-03-22T12:35:21;144702.22;;;12.64;97.02
8280;BME280;8335;42.646;23.380;2023-03-22T12:37:51;144718.41;;;12.71;95.70
8280;BME280;8335;42.646;23.380;2023-03-22T12:40:22;144735.84;;;12.78;94.65
8280;BME280;8335;42.646;23.380;2023-03-22T12:42:58;144747.06;;;12.82;93.29
8280;BME280;8335;42.646;23.380;2023-03-22T12:45:30;144754.50;;;12.85;92.84
8280;BME280;8335;42.646;23.380;2023-03-22T12:48:04;144791.91;;;13.01;92.13
8280;BME280;8335;42.646;23.380;2023-03-22T12:50:35;144828.03;;;13.15;91.10
8280;BME280;8335;42.646;23.380;2023-03-22T12:53:04;144846.75;;;13.23;90.46
8280;BME280;8335;42.646;23.380;2023-03-22T12:55:33;144861.72;;;13.29;90.26
8280;BME280;8335;42.646;23.380;2023-03-22T12:58:01;144872.91;;;13.34;88.28
8280;BME280;8335;42.646;23.380;2023-03-22T13:00:35;144783.16;;;12.97;87.09
8280;BME280;8335;42.646;23.380;2023-03-22T13:03:06;144909.03;;;13.48;85.90
8280;BME280;8335;42.646;23.380;2023-03-22T13:05:35;144935.22;;;13.59;85.63
8280;BME280;8335;42.646;23.380;2023-03-22T13:08:02;144961.38;;;13.70;85.73
8280;BME280;8335;42.646;23.380;2023-03-22T13:11:03;144971.34;;;13.74;86.37